sensor_id;sensor_type;location;lat;lon;timestamp;pressure;altitude;pressure_sealevel;temperature;humidity
17505;BME280;8870;50.950;11.762;2023-07-29T00:03:03;97796.78;;;19.17;100.00
17505;BME280;8870;50.950;11.762;2023-07-29T00:08:37;97799.13;;;19.13;100.00
17505;BME280;8870;50.950;11.762;2023-07-29T00:14:08;97788.44;;;19.12;100.00
17505;BME280;8870;50.950;11.762;2023-07-29T00:19:27;97803.38;;;19.09;100.00
17505;BME280;8870;50.950;11.762;2023-07-29T00:25:00;97801.09;;;18.94;100.00
17505;BME280;8870;50.950;11.762;2023-07-29T00:30:19;97819.63;;;18.85;100.00
17505;BME280;8870;50.950;11.762;2023-07-29T00:35:50;97824.56;;;18.76;100.00
17505;BME280;8870;50.950;11.762;2023-07-29T00:41:12;97841.03;;;18.70;100.00
17505;BME280;8870;50.950;11.762;2023-07-29T00:46:45;97845.50;;;18.64;100.00
17505;BME280;8870;50.950;11.762;2023-07-29T00:52:16;97844.06;;;18.61;100.00
17505;BME280;8870;50.950;11.762;2023-07-29T00:57:51;97844.75;;;18.57;100.00
17505;BME280;8870;50.950;11.762;2023-07-29T01:03:10;97853.38;;;18.54;100.00
17505;BME280;8870;50.950;11.762;2023-07-29T01:08:51;97849.59;;;18.55;100.00
17505;BME280;8870;50.950;11.762;2023-07-29T01:14:34;97849.59;;;18.55;100.00
17505;BME280;8870;50.950;11.762;2023-07-29T01:20:00;97847.34;;;18.52;100.00
17505;BME280;8870;50.950;11.762;2023-07-29T01:25:35;97850.88;;;18.52;100.00
17505;BME280;8870;50.950;11.762;2023-07-29T01:30:58;97842.47;;;18.54;100.00
17505;BME280;8870;50.950;11.762;2023-07-29T01:36:34;97838.47;;;18.56;100.00
17505;BME280;8870;50.950;11.762;2023-07-29T01:41:59;97836.56;;;18.57;100.00
17505;BME280;8870;50.950;11.762;2023-07-29T01:47:32;97836.56;;;18.57;100.00
17505;BME280;8870;50.950;11.762;2023-07-29T01:52:50;97833.84;;;18.57;100.00
17505;BME280;8870;50.950;11.762;2023-07-29T01:58:23;97843.44;;;18.59;100.00
17505;BME280;8870;50.950;11.762;2023-07-29T02:03:42;97836.56;;;18.57;100.00
17505;BME280;8870;50.950;11.762;2023-07-29T02:09:16;97841.41;;;18.55;100.00
17505;BME280;8870;50.950;11.762;2023-07-29T02:14:51;97820.88;;;18.52;100.00
17505;BME280;8870;50.950;11.762;2023-07-29T02:20:11;97834.75;;;18.51;100.00
17505;BME280;8870;50.950;11.762;2023-07-29T02:25:41;97824.91;;;18.50;100.00
17505;BME280;8870;50.950;11.762;2023-07-29T02:31:14;97817.97;;;18.47;100.00
17505;BME280;8870;50.950;11.762;2023-07-29T02:36:45;97815.13;;;18.42;100.00
17505;BME280;8870;50.950;11.762;2023-07-29T02:42:04;97813.91;;;18.38;100.00
17505;BME280;8870;50.950;11.762;2023-07-29T02:47:39;97810.19;;;18.32;100.00
17505;BME280;8870;50.950;11.762;2023-07-29T02:52:58;97821.16;;;18.25;100.00
17505;BME280;8870;50.950;11.762;2023-07-29T02:58:28;97825.47;;;18.14;100.00
17505;BME280;8870;50.950;11.762;2023-07-29T03:03:49;97832.72;;;18.02;100.00
17505;BME280;8870;50.950;11.762;2023-07-29T03:09:21;97828.59;;;17.93;100.00
17505;BME280;8870;50.950;11.762;2023-07-29T03:14:52;97832.44;;;17.85;100.00
17505;BME280;8870;50.950;11.762;2023-07-29T03:20:13;97831.44;;;17.79;100.00
17505;BME280;8870;50.950;11.762;2023-07-29T03:25:48;97833.34;;;17.72;100.00
17505;BME280;8870;50.950;11.762;2023-07-29T03:31:08;97838.28;;;17.63;100.00
17505;BME280;8870;50.950;11.762;2023-07-29T03:36:42;97839.38;;;17.55;100.00
17505;BME280;8870;50.950;11.762;2023-07-29T03:42:03;97834.78;;;17.49;100.00
17505;BME280;8870;50.950;11.762;2023-07-29T03:47:35;97837.97;;;17.46;100.00
17505;BME280;8870;50.950;11.762;2023-07-29T03:52:55;97829.84;;;17.39;100.00
17505;BME280;8870;50.950;11.762;2023-07-29T03:58:20;97828.19;;;17.38;100.00
17505;BME280;8870;50.950;11.762;2023-07-29T04:03:50;97837.41;;;17.37;100.00
17505;BME280;8870;50.950;11.762;2023-07-29T04:09:19;97829.00;;;17.39;100.00
17505;BME280;8870;50.950;11.762;2023-07-29T04:14:50;97829.84;;;17.39;100.00
17505;BME280;8870;50.950;11.762;2023-07-29T04:20:10;97820.41;;;17.42;100.00
17505;BME280;8870;50.950;11.762;2023-07-29T04:25:44;97822.91;;;17.44;100.00
17505;BME280;8870;50.950;11.762;2023-07-29T04:31:03;97824.38;;;17.46;100.00
17505;BME280;8870;50.950;11.762;2023-07-29T04:36:34;97817.84;;;17.47;100.00
17505;BME280;8870;50.950;11.762;2023-07-29T04:41:54;97830.19;;;17.50;100.00
17505;BME280;8870;50.950;11.762;2023-07-29T04:47:26;97829.72;;;17.53;100.00
17505;BME280;8870;50.950;11.762;2023-07-29T04:52:51;97830.97;;;17.57;100.00
17505;BME280;8870;50.950;11.762;2023-07-29T04:58:25;97831.34;;;17.61;100.00
17505;BME280;8870;50.950;11.762;2023-07-29T05:03:45;97809.13;;;17.64;100.00
17505;BME280;8870;50.950;11.762;2023-07-29T05:09:17;97814.97;;;17.67;100.00
17505;BME280;8870;50.950;11.762;2023-07-29T05:14:50;97822.25;;;17.74;100.00
17505;BME280;8870;50.950;11.762;2023-07-29T05:20:09;97819.47;;;17.80;100.00
17505;BME280;8870;50.950;11.762;2023-07-29T05:25:42;97812.69;;;17.90;100.00
17505;BME280;8870;50.950;11.762;2023-07-29T05:31:03;97822.28;;;17.99;100.00
17505;BME280;8870;50.950;11.762;2023-07-29T05:36:35;97811.25;;;18.12;100.00
17505;BME280;8870;50.950;11.762;2023-07-29T05:41:54;97793.53;;;18.22;100.00
17505;BME280;8870;50.950;11.762;2023-07-29T05:47:29;97780.34;;;18.37;100.00
17505;BME280;8870;50.950;11.762;2023-07-29T05:52:48;97776.19;;;18.53;100.00
17505;BME280;8870;50.950;11.762;2023-07-29T05:58:19;97784.72;;;18.75;100.00
17505;BME280;8870;50.950;11.762;2023-07-29T06:03:39;97753.16;;;18.98;100.00
17505;BME280;8870;50.950;11.762;2023-07-29T06:09:11;97741.09;;;19.18;100.00
17505;BME280;8870;50.950;11.762;2023-07-29T06:14:29;97732.69;;;19.31;100.00
17505;BME280;8870;50.950;11.762;2023-07-29T06:20:03;97723.09;;;19.40;100.00
17505;BME280;8870;50.950;11.762;2023-07-29T06:25:22;97714.78;;;19.59;100.00
17505;BME280;8870;50.950;11.762;2023-07-29T06:30:53;97705.28;;;19.74;100.00
17505;BME280;8870;50.950;11.762;2023-07-29T06:36:13;97700.28;;;19.94;100.00
17505;BME280;8870;50.950;11.762;2023-07-29T06:41:45;97684.81;;;20.12;100.00
17505;BME280;8870;50.950;11.762;2023-07-29T06:47:04;97673.13;;;20.28;100.00
17505;BME280;8870;50.950;11.762;2023-07-29T06:52:37;97658.00;;;20.38;100.00
17505;BME280;8870;50.950;11.762;2023-07-29T06:57:56;97642.44;;;20.55;100.00
17505;BME280;8870;50.950;11.762;2023-07-29T07:03:27;97643.69;;;20.64;100.00
17505;BME280;8870;50.950;11.762;2023-07-29T07:08:54;97651.09;;;20.64;100.00
17505;BME280;8870;50.950;11.762;2023-07-29T07:14:26;97656.31;;;20.66;100.00
17505;BME280;8870;50.950;11.762;2023-07-29T07:19:44;97659.41;;;20.69;100.00
17505;BME280;8870;50.950;11.762;2023-07-29T07:25:17;97669.06;;;20.60;100.00
17505;BME280;8870;50.950;11.762;2023-07-29T07:30:39;97661.41;;;20.45;100.00
17505;BME280;8870;50.950;11.762;2023-07-29T07:36:10;97665.94;;;20.39;100.00
17505;BME280;8870;50.950;11.762;2023-07-29T07:41:30;97665.84;;;20.34;100.00
17505;BME280;8870;50.950;11.762;2023-07-29T07:47:02;97658.06;;;20.43;100.00
17505;BME280;8870;50.950;11.762;2023-07-29T07:52:20;97655.78;;;20.52;100.00
17505;BME280;8870;50.950;11.762;2023-07-29T07:57:53;97655.81;;;20.69;100.00
17505;BME280;8870;50.950;11.762;2023-07-29T08:03:12;97649.06;;;20.88;100.00
17505;BME280;8870;50.950;11.762;2023-07-29T08:08:43;97639.47;;;21.03;100.00
17505;BME280;8870;50.950;11.762;2023-07-29T08:14:04;97635.47;;;21.28;100.00
17505;BME280;8870;50.950;11.762;2023-07-29T08:19:35;97623.16;;;21.30;100.00
17505;BME280;8870;50.950;11.762;2023-07-29T08:24:53;97625.88;;;21.47;100.00
17505;BME280;8870;50.950;11.762;2023-07-29T08:30:27;97613.84;;;21.65;100.00
17505;BME280;8870;50.950;11.762;2023-07-29T08:35:46;97615.09;;;21.75;100.00
17505;BME280;8870;50.950;11.762;2023-07-29T08:41:21;97623.63;;;21.78;100.00
17505;BME280;8870;50.950;11.762;2023-07-29T08:46:46;97637.34;;;21.78;100.00
17505;BME280;8870;50.950;11.762;2023-07-29T08:52:20;97639.72;;;21.92;100.00
17505;BME280;8870;50.950;11.762;2023-07-29T08:57:38;97644.03;;;21.88;100.00
17505;BME280;8870;50.950;11.762;2023-07-29T09:08:43;97648.88;;;21.80;100.00
17505;BME280;8870;50.950;11.762;2023-07-29T09:14:15;97635.59;;;21.72;100.00
17505;BME280;8870;50.950;11.762;2023-07-29T09:19:33;97627.44;;;21.77;100.00
17505;BME280;8870;50.950;11.762;2023-07-29T09:25:08;97636.44;;;21.73;100.00
17505;BME280;8870;50.950;11.762;2023-07-29T09:30:26;97627.31;;;21.67;100.00
17505;BME280;8870;50.950;11.762;2023-07-29T09:35:58;97630.56;;;21.64;100.00
17505;BME280;8870;50.950;11.762;2023-07-29T09:41:18;97630.63;;;21.69;100.00
17505;BME280;8870;50.950;11.762;2023-07-29T09:46:50;97633.44;;;21.74;100.00
17505;BME280;8870;50.950;11.762;2023-07-29T09:52:08;97621.66;;;21.74;100.00
17505;BME280;8870;50.950;11.762;2023-07-29T09:57:43;97642.69;;;21.68;100.00
17505;BME280;8870;50.950;11.762;2023-07-29T10:03:01;97642.56;;;21.80;100.00
17505;BME280;8870;50.950;11.762;2023-07-29T10:08:32;97635.88;;;21.93;100.00
17505;BME280;8870;50.950;11.762;2023-07-29T10:13:56;97619.56;;;22.03;100.00
17505;BME280;8870;50.950;11.762;2023-07-29T10:19:28;97617.34;;;22.05;100.00
17505;BME280;8870;50.950;11.762;2023-07-29T10:24:48;97626.03;;;22.19;100.00
17505;BME280;8870;50.950;11.762;2023-07-29T10:30:24;97619.81;;;22.29;100.00
17505;BME280;8870;50.950;11.762;2023-07-29T10:35:43;97620.59;;;22.24;100.00
17505;BME280;8870;50.950;11.762;2023-07-29T10:41:15;97626.84;;;22.20;100.00
17505;BME280;8870;50.950;11.762;2023-07-29T10:46:37;97617.34;;;22.05;100.00
17505;BME280;8870;50.950;11.762;2023-07-29T10:52:08;97620.56;;;21.97;100.00
17505;BME280;8870;50.950;11.762;2023-07-29T10:57:31;97612.78;;;21.89;100.00
17505;BME280;8870;50.950;11.762;2023-07-29T11:03:06;97622.28;;;21.81;100.00
17505;BME280;8870;50.950;11.762;2023-07-29T11:08:28;97615.91;;;21.75;100.00
17505;BME280;8870;50.950;11.762;2023-07-29T11:14:00;97612.72;;;21.83;100.00
17505;BME280;8870;50.950;11.762;2023-07-29T11:19:22;97622.53;;;22.01;100.00
17505;BME280;8870;50.950;11.762;2023-07-29T11:24:53;97596.22;;;22.50;100.00
17505;BME280;8870;50.950;11.762;2023-07-29T11:30:12;97597.72;;;22.63;100.00
17505;BME280;8870;50.950;11.762;2023-07-29T11:35:47;97589.88;;;22.77;100.00
17505;BME280;8870;50.950;11.762;2023-07-29T11:41:06;97585.03;;;22.57;100.00
17505;BME280;8870;50.950;11.762;2023-07-29T11:46:37;97584.38;;;22.77;100.00
17505;BME280;8870;50.950;11.762;2023-07-29T11:51:58;97588.50;;;22.80;100.00
17505;BME280;8870;50.950;11.762;2023-07-29T11:57:29;97572.09;;;22.85;100.00
17505;BME280;8870;50.950;11.762;2023-07-29T12:02:48;97567.38;;;23.18;100.00
17505;BME280;8870;50.950;11.762;2023-07-29T12:08:22;97569.72;;;23.31;100.00
17505;BME280;8870;50.950;11.762;2023-07-29T12:13:54;97557.00;;;23.25;100.00
17505;BME280;8870;50.950;11.762;2023-07-29T12:19:12;97549.16;;;23.44;100.00
17505;BME280;8870;50.950;11.762;2023-07-29T12:24:51;97564.03;;;23.48;100.00
17505;BME280;8870;50.950;11.762;2023-07-29T12:30:10;97559.34;;;23.49;100.00
17505;BME280;8870;50.950;11.762;2023-07-29T12:35:42;97545.41;;;23.66;100.00
17505;BME280;8870;50.950;11.762;2023-07-29T12:41:06;97546.84;;;23.79;100.00
17505;BME280;8870;50.950;11.762;2023-07-29T12:46:37;97515.03;;;23.98;100.00
17505;BME280;8870;50.950;11.762;2023-07-29T12:51:55;97517.31;;;24.27;100.00
17505;BME280;8870;50.950;11.762;2023-07-29T12:57:29;97509.03;;;24.53;100.00
17505;BME280;8870;50.950;11.762;2023-07-29T13:02:48;97505.47;;;24.58;100.00
17505;BME280;8870;50.950;11.762;2023-07-29T13:08:19;97516.19;;;24.34;100.00
17505;BME280;8870;50.950;11.762;2023-07-29T13:13:52;97492.53;;;24.38;100.00
17505;BME280;8870;50.950;11.762;2023-07-29T13:19:11;97494.19;;;24.44;100.00
17505;BME280;8870;50.950;11.762;2023-07-29T13:24:42;97484.28;;;24.43;100.00
17505;BME280;8870;50.950;11.762;2023-07-29T13:30:04;97489.78;;;24.48;100.00
17505;BME280;8870;50.950;11.762;2023-07-29T13:35:35;97488.13;;;24.47;100.00
17505;BME280;8870;50.950;11.762;2023-07-29T13:40:53;97475.19;;;24.53;100.00
17505;BME280;8870;50.950;11.762;2023-07-29T13:46:27;97483.16;;;24.54;100.00
17505;BME280;8870;50.950;11.762;2023-07-29T13:51:45;97476.84;;;24.54;100.00
17505;BME280;8870;50.950;11.762;2023-07-29T13:57:16;97479.59;;;24.49;100.00
17505;BME280;8870;50.950;11.762;2023-07-29T14:02:37;97477.66;;;24.54;100.00
17505;BME280;8870;50.950;11.762;2023-07-29T14:08:08;97485.38;;;24.47;100.00
17505;BME280;8870;50.950;11.762;2023-07-29T14:13:26;97501.88;;;24.31;100.00
17505;BME280;8870;50.950;11.762;2023-07-29T14:18:59;97494.16;;;24.13;100.00
17505;BME280;8870;50.950;11.762;2023-07-29T14:24:18;97510.28;;;23.89;100.00
17505;BME280;8870;50.950;11.762;2023-07-29T14:29:49;97534.97;;;23.63;100.00
17505;BME280;8870;50.950;11.762;2023-07-29T14:35:10;97535.69;;;23.43;100.00
17505;BME280;8870;50.950;11.762;2023-07-29T14:40:41;97539.91;;;23.18;100.00
17505;BME280;8870;50.950;11.762;2023-07-29T14:45:59;97547.16;;;22.59;100.00
17505;BME280;8870;50.950;11.762;2023-07-29T14:51:33;97562.47;;;21.78;100.00
17505;BME280;8870;50.950;11.762;2023-07-29T14:56:52;97622.72;;;20.70;100.00
17505;BME280;8870;50.950;11.762;2023-07-29T15:02:23;97647.44;;;19.53;100.00
17505;BME280;8870;50.950;11.762;2023-07-29T15:07:44;97694.44;;;19.07;100.00
17505;BME280;8870;50.950;11.762;2023-07-29T15:13:15;97666.00;;;18.85;100.00
17505;BME280;8870;50.950;11.762;2023-07-29T15:18:33;97702.56;;;18.65;100.00
17505;BME280;8870;50.950;11.762;2023-07-29T15:24:07;97706.88;;;18.24;100.00
17505;BME280;8870;50.950;11.762;2023-07-29T15:29:25;97729.75;;;18.23;100.00
17505;BME280;8870;50.950;11.762;2023-07-29T15:34:57;97722.88;;;18.20;100.00
17505;BME280;8870;50.950;11.762;2023-07-29T15:40:18;97700.38;;;18.25;100.00
17505;BME280;8870;50.950;11.762;2023-07-29T15:45:49;97725.53;;;18.27;100.00
17505;BME280;8870;50.950;11.762;2023-07-29T15:51:07;97720.53;;;18.24;100.00
17505;BME280;8870;50.950;11.762;2023-07-29T15:56:41;97697.66;;;18.25;100.00
17505;BME280;8870;50.950;11.762;2023-07-29T16:01:59;97689.59;;;18.30;100.00
17505;BME280;8870;50.950;11.762;2023-07-29T16:07:30;97688.84;;;18.72;100.00
17505;BME280;8870;50.950;11.762;2023-07-29T16:13:04;97739.13;;;19.73;100.00
17505;BME280;8870;50.950;11.762;2023-07-29T16:18:22;97689.03;;;20.31;100.00
17505;BME280;8870;50.950;11.762;2023-07-29T16:23:53;97666.03;;;20.73;100.00
17505;BME280;8870;50.950;11.762;2023-07-29T16:29:14;97663.50;;;21.01;100.00
17505;BME280;8870;50.950;11.762;2023-07-29T16:34:45;97657.47;;;21.33;100.00
17505;BME280;8870;50.950;11.762;2023-07-29T16:40:04;97664.53;;;21.63;100.00
17505;BME280;8870;50.950;11.762;2023-07-29T16:45:39;97658.91;;;21.92;100.00
17505;BME280;8870;50.950;11.762;2023-07-29T16:51:10;97645.44;;;22.12;100.00
17505;BME280;8870;50.950;11.762;2023-07-29T16:56:28;97651.84;;;22.23;100.00
17505;BME280;8870;50.950;11.762;2023-07-29T17:02:02;97649.91;;;22.41;100.00
17505;BME280;8870;50.950;11.762;2023-07-29T17:07:28;97649.31;;;22.39;100.00
17505;BME280;8870;50.950;11.762;2023-07-29T17:12:59;97649.81;;;22.58;100.00
17505;BME280;8870;50.950;11.762;2023-07-29T17:18:20;97654.91;;;22.71;100.00
17505;BME280;8870;50.950;11.762;2023-07-29T17:23:51;97671.41;;;22.76;100.00
17505;BME280;8870;50.950;11.762;2023-07-29T17:29:09;97667.31;;;23.06;100.00
17505;BME280;8870;50.950;11.762;2023-07-29T17:34:43;97660.19;;;23.38;100.00
17505;BME280;8870;50.950;11.762;2023-07-29T17:40:01;97673.84;;;23.70;100.00
17505;BME280;8870;50.950;11.762;2023-07-29T17:45:34;97653.44;;;23.61;100.00
17505;BME280;8870;50.950;11.762;2023-07-29T17:50:55;97670.41;;;23.48;100.00
17505;BME280;8870;50.950;11.762;2023-07-29T17:56:26;97663.75;;;23.38;100.00
17505;BME280;8870;50.950;11.762;2023-07-29T18:01:44;97680.31;;;23.49;100.00
17505;BME280;8870;50.950;11.762;2023-07-29T18:07:18;97675.91;;;23.48;100.00
17505;BME280;8870;50.950;11.762;2023-07-29T18:12:49;97693.47;;;23.47;100.00
17505;BME280;8870;50.950;11.762;2023-07-29T18:18:07;97685.78;;;23.44;100.00
17505;BME280;8870;50.950;11.762;2023-07-29T18:23:41;97686.06;;;23.15;100.00
17505;BME280;8870;50.950;11.762;2023-07-29T18:28:59;97697.56;;;22.84;100.00
17505;BME280;8870;50.950;11.762;2023-07-29T18:34:30;97697.88;;;22.38;100.00
17505;BME280;8870;50.950;11.762;2023-07-29T18:39:51;97698.56;;;22.06;100.00
17505;BME280;8870;50.950;11.762;2023-07-29T18:45:22;97706.72;;;21.62;100.00
17505;BME280;8870;50.950;11.762;2023-07-29T18:50:40;97697.72;;;21.32;100.00
17505;BME280;8870;50.950;11.762;2023-07-29T18:56:14;97704.03;;;20.99;100.00
17505;BME280;8870;50.950;11.762;2023-07-29T19:01:32;97725.06;;;20.81;100.00
17505;BME280;8870;50.950;11.762;2023-07-29T19:07:04;97721.31;;;20.58;100.00
17505;BME280;8870;50.950;11.762;2023-07-29T19:12:25;97725.88;;;20.41;100.00
17505;BME280;8870;50.950;11.762;2023-07-29T19:17:58;97748.75;;;20.23;100.00
17505;BME280;8870;50.950;11.762;2023-07-29T19:23:17;97753.56;;;20.04;100.00
17505;BME280;8870;50.950;11.762;2023-07-29T19:28:51;97758.66;;;19.88;100.00
17505;BME280;8870;50.950;11.762;2023-07-29T19:34:09;97759.94;;;19.74;100.00
17505;BME280;8870;50.950;11.762;2023-07-29T19:39:40;97767.75;;;19.58;100.00
17505;BME280;8870;50.950;11.762;2023-07-29T19:45:01;97762.75;;;19.43;100.00
17505;BME280;8870;50.950;11.762;2023-07-29T19:50:32;97767.00;;;19.27;100.00
17505;BME280;8870;50.950;11.762;2023-07-29T19:55:50;97774.09;;;19.16;100.00
17505;BME280;8870;50.950;11.762;2023-07-29T20:01:24;97777.38;;;19.06;100.00
17505;BME280;8870;50.950;11.762;2023-07-29T20:06:42;97783.75;;;19.00;100.00
17505;BME280;8870;50.950;11.762;2023-07-29T20:12:16;97790.59;;;18.91;100.00
17505;BME280;8870;50.950;11.762;2023-07-29T20:17:37;97782.72;;;18.83;100.00
17505;BME280;8870;50.950;11.762;2023-07-29T20:23:08;97787.91;;;18.72;100.00
17505;BME280;8870;50.950;11.762;2023-07-29T20:28:26;97792.59;;;18.65;100.00
17505;BME280;8870;50.950;11.762;2023-07-29T20:34:00;97782.00;;;18.57;100.00
17505;BME280;8870;50.950;11.762;2023-07-29T20:39:18;97789.44;;;18.50;100.00
17505;BME280;8870;50.950;11.762;2023-07-29T20:44:50;97808.81;;;18.41;100.00
17505;BME280;8870;50.950;11.762;2023-07-29T20:50:11;97799.28;;;18.32;100.00
17505;BME280;8870;50.950;11.762;2023-07-29T20:55:42;97810.72;;;18.22;100.00
17505;BME280;8870;50.950;11.762;2023-07-29T21:01:00;97814.19;;;18.11;100.00
17505;BME280;8870;50.950;11.762;2023-07-29T21:06:35;97812.81;;;18.01;100.00
17505;BME280;8870;50.950;11.762;2023-07-29T21:11:53;97805.31;;;17.97;100.00
17505;BME280;8870;50.950;11.762;2023-07-29T21:17:26;97817.09;;;17.91;100.00
17505;BME280;8870;50.950;11.762;2023-07-29T21:22:47;97804.34;;;17.84;100.00
17505;BME280;8870;50.950;11.762;2023-07-29T21:28:19;97810.06;;;17.76;100.00
17505;BME280;8870;50.950;11.762;2023-07-29T21:33:37;97802.34;;;17.73;100.00
17505;BME280;8870;50.950;11.762;2023-07-29T21:39:11;97805.06;;;17.73;100.00
17505;BME280;8870;50.950;11.762;2023-07-29T21:44:29;97802.56;;;17.71;100.00
17505;BME280;8870;50.950;11.762;2023-07-29T21:50:00;97817.69;;;17.67;100.00
17505;BME280;8870;50.950;11.762;2023-07-29T21:55:21;97815.63;;;17.63;100.00
17505;BME280;8870;50.950;11.762;2023-07-29T22:00:52;97815.47;;;17.58;100.00
17505;BME280;8870;50.950;11.762;2023-07-29T22:06:10;97824.53;;;17.51;100.00
17505;BME280;8870;50.950;11.762;2023-07-29T22:11:45;97831.06;;;17.44;100.00
17505;BME280;8870;50.950;11.762;2023-07-29T22:17:16;97832.78;;;17.38;100.00
17505;BME280;8870;50.950;11.762;2023-07-29T22:22:35;97833.66;;;17.32;100.00
17505;BME280;8870;50.950;11.762;2023-07-29T22:28:08;97842.94;;;17.24;100.00
17505;BME280;8870;50.950;11.762;2023-07-29T22:33:26;97837.53;;;17.17;100.00
17505;BME280;8870;50.950;11.762;2023-07-29T22:38:57;97841.72;;;17.13;100.00
17505;BME280;8870;50.950;11.762;2023-07-29T22:44:18;97857.66;;;17.09;100.00
17505;BME280;8870;50.950;11.762;2023-07-29T22:49:49;97863.94;;;17.10;100.00
17505;BME280;8870;50.950;11.762;2023-07-29T22:55:08;97853.25;;;17.08;100.00
17505;BME280;8870;50.950;11.762;2023-07-29T23:00:42;97854.53;;;17.06;100.00
17505;BME280;8870;50.950;11.762;2023-07-29T23:06:01;97844.72;;;17.05;100.00
17505;BME280;8870;50.950;11.762;2023-07-29T23:11:31;97839.25;;;17.05;100.00
17505;BME280;8870;50.950;11.762;2023-07-29T23:17:05;97848.69;;;17.02;100.00
17505;BME280;8870;50.950;11.762;2023-07-29T23:22:23;97852.25;;;17.03;100.00
17505;BME280;8870;50.950;11.762;2023-07-29T23:27:54;97842.22;;;17.03;100.00
17505;BME280;8870;50.950;11.762;2023-07-29T23:33:15;97847.66;;;17.03;100.00
17505;BME280;8870;50.950;11.762;2023-07-29T23:38:46;97864.19;;;17.02;100.00
17505;BME280;8870;50.950;11.762;2023-07-29T23:44:04;97886.19;;;17.00;100.00
17505;BME280;8870;50.950;11.762;2023-07-29T23:49:38;97900.44;;;16.96;100.00
17505;BME280;8870;50.950;11.762;2023-07-29T23:54:56;97897.47;;;16.90;100.00
